Rockbridge, Missouri
Current Conditions -  °F | °C
As of 3:53 AM on Monday 26 Jan 2015 (Local Time) from KUNO Reporting Station
Overcast Overcast  
Wind Chill: 26°   Ceiling: 1300
Heat Index: 33°   Visibility: 10mi
Dew Point: 27°   Wind: 8mph
Humidity: 78%   Direction: 320°NW
Pressure: 30.05"   Gusts: NA
Location:  36.79°N, 92.41°W
Report Text: KUNO 260953Z AUTO 32007KT 10SM OVC013 01/M03 A3005 RMK AO2 SLP183 T00061028
Loading
Personal Weather Stations






























Interactive Weather Map New forecast layout! Learn more

10-Day Weather Forecast

Advertisements
Track Severe Weather on mobile